Terminal Aerodrome Forecast
Issued by NWS

Home | Current Version | Previous Version | Text Only | Print | Product List | Glossary On
Versions: 1 2 3 4 5 6 7 8 9 10 11 12 13 14
153
FTUS45 KTFX 212340
TAFHLN
TAF
KHLN 212340Z 2200/2224 25009KT P6SM BKN090
     FM220700 21003KT P6SM SCT050 BKN080 PROB30 2213/2218 6SM -SHSN
      BKN040=

USA.gov is the U.S. government's official web portal to all federal, state and local government web resources and services.